createdAt,value
2017-08-09T00:01:20.596Z,34.60
2017-08-09T00:03:46.608Z,33.40
2017-08-09T00:06:12.636Z,26.07
2017-08-09T00:08:38.657Z,34.73
2017-08-09T00:11:04.681Z,36.23
2017-08-09T00:13:31.445Z,37.30
2017-08-09T00:15:57.460Z,38.30
2017-08-09T00:18:23.498Z,35.20
2017-08-09T00:20:49.537Z,36.27
2017-08-09T00:23:16.309Z,40.00
2017-08-09T00:25:42.346Z,35.63
2017-08-09T00:28:08.373Z,38.37
2017-08-09T00:30:35.130Z,39.53
2017-08-09T00:33:01.188Z,40.07
2017-08-09T00:35:27.225Z,35.57
2017-08-09T00:37:54.009Z,35.60
2017-08-09T00:40:20.045Z,36.80
2017-08-09T00:42:46.841Z,38.53
2017-08-09T00:45:12.903Z,39.60
2017-08-09T00:47:38.942Z,39.27
2017-08-09T00:50:04.976Z,41.60
2017-08-09T00:52:31.017Z,34.87
2017-08-09T00:54:57.094Z,40.97
2017-08-09T00:57:23.132Z,39.60
2017-08-09T00:59:49.166Z,43.20
2017-08-09T01:02:15.236Z,46.43
2017-08-09T01:04:41.289Z,40.10
2017-08-09T01:07:07.325Z,48.43
2017-08-09T01:09:33.360Z,50.57
2017-08-09T01:11:59.409Z,51.43
2017-08-09T01:14:25.437Z,41.70
2017-08-09T01:16:51.485Z,50.57
2017-08-09T01:19:17.541Z,51.83
2017-08-09T01:21:43.577Z,50.80
2017-08-09T01:24:09.609Z,51.83
2017-08-09T01:26:35.625Z,50.83
2017-08-09T01:29:01.689Z,49.77
2017-08-09T01:31:27.725Z,51.17
2017-08-09T01:33:53.768Z,49.07
2017-08-09T01:36:19.814Z,44.97
2017-08-09T01:38:45.885Z,43.90
2017-08-09T01:41:26.919Z,44.67
2017-08-09T01:43:52.945Z,46.70
2017-08-09T01:46:19.078Z,50.87
2017-08-09T01:48:45.096Z,44.93
2017-08-09T01:51:11.140Z,49.60
2017-08-09T01:53:37.193Z,43.47
2017-08-09T01:56:03.984Z,51.63
2017-08-09T01:58:30.008Z,49.67
2017-08-09T02:00:56.064Z,47.73
2017-08-09T02:03:22.141Z,50.57
2017-08-09T02:05:48.345Z,48.83
2017-08-09T02:08:15.217Z,48.43
2017-08-09T02:10:41.253Z,45.97
2017-08-09T02:13:07.406Z,47.20
2017-08-09T02:15:33.432Z,46.93
2017-08-09T02:17:59.468Z,45.60
2017-08-09T02:20:25.698Z,32.63
2017-08-09T02:22:51.790Z,42.80
2017-08-09T02:25:17.805Z,46.10
2017-08-09T02:27:43.860Z,37.27
2017-08-09T02:30:10.653Z,39.37
2017-08-09T02:32:36.684Z,39.40
2017-08-09T02:35:02.704Z,39.20
2017-08-09T02:37:29.477Z,39.87
2017-08-09T02:39:55.505Z,36.57
2017-08-09T02:42:21.509Z,31.47
2017-08-09T02:44:47.561Z,28.60
2017-08-09T02:47:13.562Z,34.23
2017-08-09T02:49:39.574Z,32.03
2017-08-09T02:52:06.344Z,28.00
2017-08-09T02:54:32.407Z,31.07
2017-08-09T02:56:58.447Z,30.37
2017-08-09T02:59:24.461Z,27.20
2017-08-09T03:01:50.485Z,26.60
2017-08-09T03:04:16.493Z,24.77
2017-08-09T03:06:42.528Z,23.23
2017-08-09T03:09:08.570Z,21.47
2017-08-09T03:11:34.584Z,25.03
2017-08-09T03:14:00.609Z,23.17
2017-08-09T03:16:26.632Z,23.23
2017-08-09T03:18:52.661Z,21.30
2017-08-09T03:21:25.636Z,21.80
2017-08-09T03:23:51.657Z,21.23
2017-08-09T03:26:17.705Z,20.67
2017-08-09T03:28:43.724Z,23.10
2017-08-09T03:31:09.818Z,21.90
2017-08-09T03:33:35.840Z,23.20
2017-08-09T03:36:01.873Z,23.63
2017-08-09T03:38:27.892Z,24.37
2017-08-09T03:41:00.805Z,22.53
2017-08-09T03:43:26.857Z,25.23
2017-08-09T03:45:52.870Z,23.20
2017-08-09T03:48:18.892Z,20.10
2017-08-09T03:50:44.931Z,23.63
2017-08-09T03:53:10.956Z,25.87
2017-08-09T03:55:36.991Z,24.90
2017-08-09T03:58:03.044Z,24.13
2017-08-09T04:00:29.065Z,23.87
2017-08-09T04:02:55.836Z,23.77
2017-08-09T04:05:21.880Z,22.63
2017-08-09T04:07:47.905Z,24.60
2017-08-09T04:10:13.916Z,22.27
2017-08-09T04:12:40.783Z,21.43
2017-08-09T04:15:06.817Z,23.20
2017-08-09T04:17:32.862Z,22.13
2017-08-09T04:19:58.906Z,24.73
2017-08-09T04:22:24.969Z,24.53
2017-08-09T04:24:51.013Z,23.97
2017-08-09T04:27:17.073Z,24.93
2017-08-09T04:29:43.114Z,23.97
2017-08-09T04:32:09.157Z,25.23
2017-08-09T04:34:35.212Z,25.80
2017-08-09T04:37:01.254Z,24.33
2017-08-09T04:39:27.296Z,26.43
2017-08-09T04:41:53.323Z,27.43
2017-08-09T04:44:19.351Z,27.33
2017-08-09T04:46:45.368Z,27.13
2017-08-09T04:49:12.137Z,27.90
2017-08-09T04:51:38.157Z,28.57
2017-08-09T04:54:04.182Z,30.30
2017-08-09T04:56:30.230Z,31.60
2017-08-09T04:58:56.252Z,31.20
2017-08-09T05:01:22.278Z,27.97
2017-08-09T05:03:48.285Z,30.00
2017-08-09T05:06:14.315Z,32.87
2017-08-09T05:08:40.324Z,33.63
2017-08-09T05:11:06.346Z,33.20
2017-08-09T05:13:32.393Z,34.50
2017-08-09T05:15:58.413Z,30.63
2017-08-09T05:18:24.484Z,33.57
2017-08-09T05:20:50.592Z,36.67
2017-08-09T05:23:16.740Z,33.47
2017-08-09T05:25:42.812Z,36.07
2017-08-09T05:28:08.826Z,35.07
2017-08-09T05:30:34.841Z,33.30
2017-08-09T05:33:00.979Z,37.23
2017-08-09T05:35:26.977Z,33.80
2017-08-09T05:37:53.076Z,36.60
2017-08-09T05:40:19.856Z,35.23
2017-08-09T05:42:45.896Z,37.30
2017-08-09T05:45:12.025Z,36.00
2017-08-09T05:47:38.165Z,39.20
2017-08-09T05:50:04.205Z,34.70
2017-08-09T05:52:30.236Z,27.40
2017-08-09T05:54:56.285Z,36.13
2017-08-09T05:57:22.333Z,28.83
2017-08-09T05:59:48.498Z,34.93
2017-08-09T06:02:14.545Z,36.00
2017-08-09T06:04:40.604Z,34.47
2017-08-09T06:07:06.696Z,36.63
2017-08-09T06:09:33.512Z,37.50
2017-08-09T06:11:59.548Z,36.27
2017-08-09T06:14:25.690Z,39.50
2017-08-09T06:16:51.780Z,34.53
2017-08-09T06:19:17.960Z,36.17
2017-08-09T06:21:44.749Z,34.23
2017-08-09T06:24:10.774Z,32.20
2017-08-09T06:26:36.816Z,30.70
2017-08-09T06:29:02.866Z,32.90
2017-08-09T06:31:28.913Z,33.07
2017-08-09T06:33:54.930Z,31.93
2017-08-09T06:36:20.948Z,32.10
2017-08-09T06:38:47.008Z,28.87
2017-08-09T06:41:13.049Z,29.60
2017-08-09T06:43:39.192Z,32.77
2017-08-09T06:46:05.232Z,31.97
2017-08-09T06:48:31.313Z,29.67
2017-08-09T06:50:57.369Z,30.23
2017-08-09T06:53:23.422Z,29.87
2017-08-09T06:55:49.460Z,27.80
2017-08-09T06:58:15.485Z,24.87
2017-08-09T07:00:41.528Z,25.30
2017-08-09T07:03:07.557Z,24.03
2017-08-09T07:05:33.590Z,22.83
2017-08-09T07:07:59.624Z,22.83
2017-08-09T07:10:25.653Z,23.53
2017-08-09T07:12:51.695Z,20.13
2017-08-09T07:15:17.726Z,20.43
2017-08-09T07:17:43.753Z,19.10
2017-08-09T07:20:09.795Z,20.00
2017-08-09T07:22:35.840Z,19.90
2017-08-09T07:25:01.883Z,19.43
2017-08-09T07:27:27.949Z,18.63
2017-08-09T07:29:53.989Z,19.43
2017-08-09T07:32:20.039Z,16.40
2017-08-09T07:34:46.813Z,15.80
2017-08-09T07:37:12.880Z,20.77
2017-08-09T07:39:38.912Z,16.30
2017-08-09T07:42:04.928Z,16.97
2017-08-09T07:44:30.961Z,18.90
2017-08-09T07:46:56.981Z,17.13
2017-08-09T07:49:23.010Z,17.27
2017-08-09T07:51:49.033Z,16.40
2017-08-09T07:54:15.067Z,13.23
2017-08-09T07:56:41.090Z,13.70
2017-08-09T07:59:07.130Z,16.47
2017-08-09T08:01:33.157Z,16.40
2017-08-09T08:03:59.190Z,15.30
2017-08-09T08:06:26.069Z,15.90
2017-08-09T08:08:52.131Z,14.67
2017-08-09T08:11:18.245Z,14.83
2017-08-09T08:13:45.000Z,15.17
2017-08-09T08:16:11.020Z,16.47
2017-08-09T08:18:37.040Z,15.90
2017-08-09T08:21:03.093Z,15.50
2017-08-09T08:23:29.113Z,13.40
2017-08-09T08:25:55.138Z,14.53
2017-08-09T08:28:21.153Z,12.50
2017-08-09T08:30:47.192Z,12.33
2017-08-09T08:33:13.225Z,13.50
2017-08-09T08:35:39.294Z,13.73
2017-08-09T08:38:05.315Z,13.60
2017-08-09T08:40:31.364Z,13.53
2017-08-09T08:42:59.948Z,15.07
2017-08-09T08:45:27.764Z,14.17
2017-08-09T08:47:55.585Z,14.60
2017-08-09T08:50:23.380Z,12.50
2017-08-09T08:52:51.184Z,16.60
2017-08-09T08:55:18.989Z,16.27
2017-08-09T08:57:46.801Z,14.30
2017-08-09T09:00:14.615Z,15.10
2017-08-09T09:02:42.432Z,17.87
2017-08-09T09:05:10.241Z,18.70
2017-08-09T09:07:38.064Z,17.87
2017-08-09T09:10:05.864Z,16.17
2017-08-09T09:12:33.684Z,18.10
2017-08-09T09:15:01.487Z,22.30
2017-08-09T09:17:29.280Z,22.33
2017-08-09T09:19:57.135Z,22.90
2017-08-09T09:22:24.960Z,22.70
2017-08-09T09:24:52.764Z,19.37
2017-08-09T09:27:20.572Z,16.20
2017-08-09T09:29:48.377Z,15.00
2017-08-09T09:32:16.196Z,15.80
2017-08-09T09:34:44.010Z,15.50
2017-08-09T09:37:11.825Z,15.70
2017-08-09T09:39:39.642Z,14.20
2017-08-09T09:42:06.022Z,13.33
2017-08-09T09:44:32.075Z,15.40
2017-08-09T09:46:58.109Z,20.10
2017-08-09T09:49:24.161Z,19.77
2017-08-09T09:51:50.185Z,19.90
2017-08-09T09:54:16.208Z,18.97
2017-08-09T09:56:49.104Z,20.60
2017-08-09T09:59:15.122Z,19.20
2017-08-09T10:01:41.150Z,18.80
2017-08-09T10:04:07.161Z,17.67
2017-08-09T10:06:33.200Z,17.40
2017-08-09T10:08:59.228Z,17.63
2017-08-09T10:11:25.251Z,17.40
2017-08-09T10:13:53.056Z,16.00
2017-08-09T10:16:20.869Z,14.63
2017-08-09T10:18:47.637Z,15.77
2017-08-09T10:21:13.648Z,15.60
2017-08-09T10:23:39.660Z,13.43
2017-08-09T10:26:05.697Z,16.40
2017-08-09T10:28:32.470Z,20.47
2017-08-09T10:30:58.496Z,20.70
2017-08-09T10:33:25.388Z,21.63
2017-08-09T10:35:51.392Z,21.03
2017-08-09T10:38:18.132Z,21.97
2017-08-09T10:40:44.157Z,20.90
2017-08-09T10:43:13.125Z,18.57
2017-08-09T10:45:47.928Z,18.13
2017-08-09T10:48:16.560Z,20.93
2017-08-09T10:50:44.357Z,18.67
2017-08-09T10:53:12.151Z,19.57
2017-08-09T10:55:39.946Z,20.03
2017-08-09T10:58:07.745Z,19.00
2017-08-09T11:00:35.539Z,19.13
2017-08-09T11:03:03.612Z,19.10
2017-08-09T11:05:31.416Z,20.40
2017-08-09T11:07:59.364Z,21.47
2017-08-09T11:10:26.164Z,20.87
2017-08-09T11:12:52.196Z,21.30
2017-08-09T11:15:18.973Z,19.87
2017-08-09T11:17:44.993Z,19.63
2017-08-09T11:20:11.029Z,20.47
2017-08-09T11:22:38.846Z,19.80
2017-08-09T11:25:06.686Z,20.60
2017-08-09T11:27:34.473Z,19.40
2017-08-09T11:30:02.276Z,19.97
2017-08-09T11:32:30.081Z,21.73
2017-08-09T11:34:57.881Z,22.27
2017-08-09T11:37:25.701Z,25.07
2017-08-09T11:39:53.508Z,20.07
2017-08-09T11:42:21.296Z,21.50
2017-08-09T11:44:49.076Z,18.47
2017-08-09T11:47:16.860Z,19.33
2017-08-09T11:49:44.653Z,21.43
2017-08-09T11:52:12.459Z,23.00
2017-08-09T11:54:40.257Z,21.23
2017-08-09T11:57:08.052Z,20.87
2017-08-09T11:59:35.854Z,20.60
2017-08-09T12:02:03.661Z,19.10
2017-08-09T12:04:31.457Z,23.53
2017-08-09T12:06:59.277Z,25.10
2017-08-09T12:09:27.073Z,22.83
2017-08-09T12:11:54.913Z,25.20
2017-08-09T12:14:22.784Z,24.13
2017-08-09T12:17:05.575Z,24.00
2017-08-09T12:19:33.373Z,19.60
2017-08-09T12:22:01.216Z,19.00
2017-08-09T12:24:29.046Z,22.03
2017-08-09T12:26:56.882Z,18.10
2017-08-09T12:29:24.672Z,21.00
2017-08-09T12:31:52.448Z,18.30
2017-08-09T12:34:20.253Z,17.77
2017-08-09T12:36:48.041Z,19.07
2017-08-09T12:39:15.852Z,15.67
2017-08-09T12:41:43.647Z,15.83
2017-08-09T12:44:11.445Z,16.67
2017-08-09T12:46:39.248Z,16.23
2017-08-09T12:49:07.056Z,18.57
2017-08-09T12:51:34.836Z,17.73
2017-08-09T12:54:02.644Z,16.07
2017-08-09T12:56:30.468Z,18.33
2017-08-09T12:58:58.321Z,18.10
2017-08-09T13:01:26.142Z,16.93
2017-08-09T13:03:53.947Z,16.37
2017-08-09T13:06:21.744Z,13.23
2017-08-09T13:08:49.532Z,10.07
2017-08-09T13:11:17.342Z,12.53
2017-08-09T13:13:45.120Z,10.17
2017-08-09T13:16:12.924Z,9.83
2017-08-09T13:18:40.736Z,9.83
2017-08-09T13:21:08.539Z,9.83
2017-08-09T13:23:36.335Z,10.83
2017-08-09T13:26:04.140Z,12.00
2017-08-09T13:28:31.952Z,10.90
2017-08-09T13:30:59.793Z,10.17
2017-08-09T13:33:27.599Z,9.80
2017-08-09T13:35:56.619Z,9.60
2017-08-09T13:38:24.503Z,10.13
2017-08-09T13:40:52.399Z,9.30
2017-08-09T13:43:20.200Z,7.17
2017-08-09T13:45:47.996Z,11.00
2017-08-09T13:48:15.808Z,10.83
2017-08-09T13:50:43.614Z,8.90
2017-08-09T13:53:11.417Z,10.47
2017-08-09T13:55:39.212Z,9.67
2017-08-09T13:58:07.016Z,8.50
2017-08-09T14:00:34.808Z,9.97
2017-08-09T14:03:02.933Z,10.53
2017-08-09T14:05:30.725Z,9.93
2017-08-09T14:07:58.536Z,8.63
2017-08-09T14:10:26.342Z,8.47
2017-08-09T14:12:54.165Z,8.53
2017-08-09T14:15:21.968Z,7.43
2017-08-09T14:17:49.758Z,7.50
2017-08-09T14:20:17.625Z,6.77
2017-08-09T14:22:45.440Z,6.80
2017-08-09T14:25:13.248Z,7.50
2017-08-09T14:27:41.057Z,7.60
2017-08-09T14:30:08.864Z,7.43
2017-08-09T14:32:36.660Z,7.90
2017-08-09T14:35:04.464Z,6.37
2017-08-09T14:37:32.260Z,6.10
2017-08-09T14:40:00.074Z,7.10
2017-08-09T14:42:27.892Z,5.93
2017-08-09T14:44:55.713Z,5.93
2017-08-09T14:47:23.512Z,4.57
2017-08-09T14:49:51.313Z,4.20
2017-08-09T14:52:17.352Z,3.70
2017-08-09T14:54:43.393Z,4.10
2017-08-09T14:57:11.205Z,3.80
2017-08-09T14:59:39.008Z,4.70
2017-08-09T15:02:06.821Z,5.63
2017-08-09T15:04:34.628Z,4.00
2017-08-09T15:07:02.443Z,4.10
2017-08-09T15:09:30.248Z,5.10
2017-08-09T15:11:58.061Z,4.60
2017-08-09T15:14:25.856Z,6.20
2017-08-09T15:16:53.646Z,5.43
2017-08-09T15:19:21.440Z,5.37
2017-08-09T15:21:49.252Z,5.67
2017-08-09T15:24:17.052Z,7.40
2017-08-09T15:26:43.092Z,5.67
2017-08-09T15:29:09.129Z,6.20
2017-08-09T15:31:35.889Z,5.60
2017-08-09T15:34:01.966Z,5.60
2017-08-09T15:36:28.005Z,6.77
2017-08-09T15:38:54.033Z,6.00
2017-08-09T15:41:20.053Z,5.30
2017-08-09T15:43:46.085Z,8.50
2017-08-09T15:46:12.845Z,9.47
2017-08-09T15:48:38.865Z,8.87
2017-08-09T15:51:04.864Z,9.73
2017-08-09T15:53:32.681Z,7.80
2017-08-09T15:56:00.496Z,7.80
2017-08-09T15:58:28.293Z,7.17
2017-08-09T16:00:56.089Z,8.13
2017-08-09T16:03:23.897Z,7.13
2017-08-09T16:05:51.688Z,10.53
2017-08-09T16:08:19.472Z,8.73
2017-08-09T16:10:47.261Z,9.40
2017-08-09T16:13:15.052Z,8.60
2017-08-09T16:15:42.873Z,8.93
2017-08-09T16:18:10.664Z,9.80
2017-08-09T16:20:38.469Z,9.60
2017-08-09T16:23:06.248Z,8.20
2017-08-09T16:25:34.040Z,9.47
2017-08-09T16:28:01.839Z,8.63
2017-08-09T16:30:29.633Z,9.60
2017-08-09T16:32:57.434Z,9.93
2017-08-09T16:35:25.264Z,9.57
2017-08-09T16:37:53.053Z,8.93
2017-08-09T16:40:20.859Z,10.47
2017-08-09T16:42:48.673Z,10.30
2017-08-09T16:45:16.480Z,9.70
2017-08-09T16:47:44.286Z,11.30
2017-08-09T16:50:12.079Z,8.30
2017-08-09T16:52:39.876Z,10.00
2017-08-09T16:55:07.683Z,10.80
2017-08-09T16:57:35.500Z,8.97
2017-08-09T17:00:03.301Z,8.60
2017-08-09T17:02:31.157Z,10.03
2017-08-09T17:04:58.988Z,8.43
2017-08-09T17:07:26.800Z,9.70
2017-08-09T17:09:54.620Z,7.70
2017-08-09T17:12:22.420Z,9.43
2017-08-09T17:14:50.229Z,8.90
2017-08-09T17:17:18.033Z,8.10
2017-08-09T17:19:45.826Z,10.00
2017-08-09T17:22:13.624Z,8.73
2017-08-09T17:24:41.418Z,8.50
2017-08-09T17:27:09.208Z,9.43
2017-08-09T17:29:37.002Z,9.10
2017-08-09T17:32:04.791Z,10.27
2017-08-09T17:34:32.604Z,9.23
2017-08-09T17:37:00.408Z,9.30
2017-08-09T17:39:28.207Z,8.67
2017-08-09T17:41:55.996Z,9.43
2017-08-09T17:44:23.817Z,7.53
2017-08-09T17:46:51.625Z,8.53
2017-08-09T17:49:19.425Z,8.40
2017-08-09T17:51:47.308Z,10.20
2017-08-09T17:54:15.173Z,9.13
2017-08-09T17:56:42.960Z,8.40
2017-08-09T17:59:10.753Z,8.40
2017-08-09T18:01:38.560Z,6.67
2017-08-09T18:04:06.349Z,6.97
2017-08-09T18:06:34.148Z,7.70
2017-08-09T18:09:01.957Z,6.30
2017-08-09T18:11:29.781Z,6.33
2017-08-09T18:13:57.572Z,7.13
2017-08-09T18:16:25.362Z,7.73
2017-08-09T18:18:53.145Z,7.60
2017-08-09T18:21:20.961Z,7.80
2017-08-09T18:23:48.748Z,7.90
2017-08-09T18:26:16.544Z,6.77
2017-08-09T18:28:44.324Z,7.50
2017-08-09T18:31:12.112Z,7.47
2017-08-09T18:33:39.888Z,7.13
2017-08-09T18:36:07.677Z,6.50
2017-08-09T18:38:35.482Z,7.83
2017-08-09T18:41:03.285Z,5.50
2017-08-09T18:43:31.088Z,5.97
2017-08-09T18:45:58.900Z,6.20
2017-08-09T18:48:26.713Z,5.83
2017-08-09T18:50:54.517Z,6.90
2017-08-09T18:53:22.336Z,9.20
2017-08-09T18:55:50.121Z,6.10
2017-08-09T18:58:17.931Z,9.87
2017-08-09T19:00:45.735Z,6.07
2017-08-09T19:03:13.545Z,6.23
2017-08-09T19:05:41.412Z,6.67
2017-08-09T19:08:09.224Z,7.00
2017-08-09T19:10:37.028Z,6.50
2017-08-09T19:13:04.840Z,6.47
2017-08-09T19:15:32.647Z,6.97
2017-08-09T19:18:00.449Z,6.43
2017-08-09T19:20:28.258Z,7.23
2017-08-09T19:22:56.065Z,7.80
2017-08-09T19:25:23.881Z,7.67
2017-08-09T19:27:51.720Z,7.80
2017-08-09T19:30:19.532Z,8.23
2017-08-09T19:32:47.340Z,8.27
2017-08-09T19:35:15.168Z,8.53
2017-08-09T19:37:42.969Z,10.30
2017-08-09T19:40:10.805Z,9.67
2017-08-09T19:42:38.612Z,9.47
2017-08-09T19:45:06.422Z,9.13
2017-08-09T19:47:34.221Z,8.30
2017-08-09T19:50:02.041Z,8.30
2017-08-09T19:52:29.894Z,8.47
2017-08-09T19:54:57.719Z,8.53
2017-08-09T19:57:25.526Z,9.43
2017-08-09T19:59:53.349Z,8.10
2017-08-09T20:02:21.232Z,8.07
2017-08-09T20:04:49.186Z,7.93
2017-08-09T20:07:16.990Z,8.60
2017-08-09T20:09:44.792Z,8.97
2017-08-09T20:12:12.589Z,8.43
2017-08-09T20:14:40.410Z,9.43
2017-08-09T20:17:08.223Z,7.37
2017-08-09T20:19:36.028Z,9.03
2017-08-09T20:22:03.852Z,8.87
2017-08-09T20:24:31.669Z,10.50
2017-08-09T20:26:59.478Z,9.27
2017-08-09T20:29:27.264Z,9.63
2017-08-09T20:31:55.080Z,10.97
2017-08-09T20:34:23.768Z,9.67
2017-08-09T20:36:51.604Z,9.57
2017-08-09T20:39:19.399Z,10.30
2017-08-09T20:41:47.205Z,9.33
2017-08-09T20:44:14.984Z,9.50
2017-08-09T20:46:42.768Z,10.07
2017-08-09T20:49:10.552Z,10.97
2017-08-09T20:51:38.370Z,11.20
2017-08-09T20:54:06.172Z,10.03
2017-08-09T20:56:33.973Z,10.73
2017-08-09T20:59:01.779Z,11.70
2017-08-09T21:01:29.585Z,12.37
2017-08-09T21:03:57.410Z,10.50
2017-08-09T21:06:25.204Z,11.90
2017-08-09T21:08:52.999Z,12.37
2017-08-09T21:11:20.812Z,11.80
2017-08-09T21:13:48.604Z,12.17
2017-08-09T21:16:16.393Z,11.20
2017-08-09T21:18:44.185Z,13.20
2017-08-09T21:21:11.967Z,11.40
2017-08-09T21:23:39.752Z,12.43
2017-08-09T21:26:07.560Z,13.10
2017-08-09T21:28:35.369Z,13.00
2017-08-09T21:31:03.156Z,12.80
2017-08-09T21:33:30.943Z,12.40
2017-08-09T21:35:58.731Z,11.63
2017-08-09T21:38:26.525Z,12.63
2017-08-09T21:40:54.349Z,12.63
2017-08-09T21:43:22.145Z,12.90
2017-08-09T21:45:49.952Z,11.90
2017-08-09T21:48:17.744Z,12.80
2017-08-09T21:50:45.547Z,11.93
2017-08-09T21:53:13.367Z,11.43
2017-08-09T21:55:41.176Z,12.90
2017-08-09T21:58:08.972Z,12.53
2017-08-09T22:00:36.789Z,13.00
2017-08-09T22:03:04.640Z,12.97
2017-08-09T22:05:32.463Z,12.90
2017-08-09T22:08:00.280Z,12.70
2017-08-09T22:10:28.085Z,12.63
2017-08-09T22:12:56.567Z,13.17
2017-08-09T22:15:24.584Z,13.80
2017-08-09T22:17:52.364Z,13.40
2017-08-09T22:20:20.149Z,13.03
2017-08-09T22:22:47.936Z,13.00
2017-08-09T22:25:15.754Z,12.80
2017-08-09T22:27:43.569Z,13.50
2017-08-09T22:30:11.439Z,12.53
2017-08-09T22:32:39.233Z,12.27
2017-08-09T22:35:07.021Z,12.07
2017-08-09T22:37:34.860Z,12.83
2017-08-09T22:40:02.657Z,12.57
2017-08-09T22:42:30.482Z,14.03
2017-08-09T22:44:58.264Z,14.23
2017-08-09T22:47:26.052Z,13.30
2017-08-09T22:49:53.841Z,14.33
2017-08-09T22:52:21.633Z,12.90
2017-08-09T22:54:49.416Z,13.00
2017-08-09T22:57:17.217Z,13.43
2017-08-09T22:59:45.005Z,13.50
2017-08-09T23:02:12.788Z,14.77
2017-08-09T23:04:40.600Z,15.83
2017-08-09T23:07:08.384Z,14.37
2017-08-09T23:09:36.168Z,14.10
2017-08-09T23:12:03.949Z,14.63
2017-08-09T23:14:31.764Z,14.97
2017-08-09T23:16:59.565Z,16.37
2017-08-09T23:19:27.368Z,14.93
2017-08-09T23:21:55.181Z,15.80
2017-08-09T23:24:22.972Z,18.17
2017-08-09T23:26:50.756Z,17.70
2017-08-09T23:29:18.539Z,17.23
2017-08-09T23:31:46.312Z,17.87
2017-08-09T23:34:14.100Z,19.00
2017-08-09T23:36:41.908Z,19.30
2017-08-09T23:39:09.794Z,18.07
2017-08-09T23:41:37.592Z,19.87
2017-08-09T23:44:05.409Z,19.17
2017-08-09T23:46:33.236Z,20.97
2017-08-09T23:49:01.048Z,21.23
2017-08-09T23:51:28.855Z,20.10
2017-08-09T23:53:56.672Z,19.17
2017-08-09T23:56:24.464Z,19.70
2017-08-09T23:58:52.268Z,19.07
